sensor_id;sensor_type;location;lat;lon;timestamp;pressure;altitude;pressure_sealevel;temperature;humidity
71491;BME280;59307;50.060;9.150;2022-09-09T00:06:58;98352.75;;;14.23;83.38
71491;BME280;59307;50.060;9.150;2022-09-09T00:09:28;98357.69;;;14.29;82.74
71491;BME280;59307;50.060;9.150;2022-09-09T00:12:15;98353.94;;;14.35;82.77
71491;BME280;59307;50.060;9.150;2022-09-09T00:14:52;98345.19;;;14.21;85.05
71491;BME280;59307;50.060;9.150;2022-09-09T00:17:39;98354.31;;;14.24;86.10
71491;BME280;59307;50.060;9.150;2022-09-09T00:23:05;98342.03;;;14.24;85.96
71491;BME280;59307;50.060;9.150;2022-09-09T00:25:44;98343.25;;;14.08;86.17
71491;BME280;59307;50.060;9.150;2022-09-09T00:28:22;98346.50;;;14.00;84.87
71491;BME280;59307;50.060;9.150;2022-09-09T00:30:48;98340.03;;;14.16;84.26
71491;BME280;59307;50.060;9.150;2022-09-09T00:33:17;98340.88;;;14.35;83.26
71491;BME280;59307;50.060;9.150;2022-09-09T00:35:49;98340.38;;;14.33;82.81
71491;BME280;59307;50.060;9.150;2022-09-09T00:41:09;98337.81;;;14.28;85.64
71491;BME280;59307;50.060;9.150;2022-09-09T00:43:38;98339.91;;;14.26;86.19
71491;BME280;59307;50.060;9.150;2022-09-09T00:51:26;98338.81;;;14.32;84.92
71491;BME280;59307;50.060;9.150;2022-09-09T00:54:15;98334.31;;;14.14;85.75
71491;BME280;59307;50.060;9.150;2022-09-09T00:59:50;98348.44;;;13.90;86.21
71491;BME280;59307;50.060;9.150;2022-09-09T01:02:28;98342.94;;;13.91;84.64
71491;BME280;59307;50.060;9.150;2022-09-09T01:05:13;98348.69;;;14.12;83.83
71491;BME280;59307;50.060;9.150;2022-09-09T01:07:47;98341.16;;;14.34;82.44
71491;BME280;59307;50.060;9.150;2022-09-09T01:13:13;98341.72;;;14.49;81.46
71491;BME280;59307;50.060;9.150;2022-09-09T01:15:41;98342.38;;;14.60;81.74
71491;BME280;59307;50.060;9.150;2022-09-09T01:18:10;98344.13;;;14.65;80.68
71491;BME280;59307;50.060;9.150;2022-09-09T01:28:11;98333.91;;;15.00;78.89
71491;BME280;59307;50.060;9.150;2022-09-09T01:30:40;98336.50;;;15.00;78.87
71491;BME280;59307;50.060;9.150;2022-09-09T01:33:12;98332.91;;;14.96;79.29
71491;BME280;59307;50.060;9.150;2022-09-09T01:38:14;98334.41;;;14.84;80.48
71491;BME280;59307;50.060;9.150;2022-09-09T01:40:40;98329.19;;;14.84;80.12
71491;BME280;59307;50.060;9.150;2022-09-09T01:43:06;98331.03;;;14.83;79.94
71491;BME280;59307;50.060;9.150;2022-09-09T01:45:33;98330.53;;;14.81;80.24
71491;BME280;59307;50.060;9.150;2022-09-09T01:47:59;98331.31;;;14.82;80.22
71491;BME280;59307;50.060;9.150;2022-09-09T01:50:25;98336.25;;;14.83;80.22
71491;BME280;59307;50.060;9.150;2022-09-09T01:52:56;98328.19;;;14.80;80.26
71491;BME280;59307;50.060;9.150;2022-09-09T01:55:29;98332.59;;;14.84;79.84
71491;BME280;59307;50.060;9.150;2022-09-09T01:58:23;98330.72;;;14.85;80.12
71491;BME280;59307;50.060;9.150;2022-09-09T02:03:31;98328.00;;;14.76;80.47
71491;BME280;59307;50.060;9.150;2022-09-09T02:08:45;98333.31;;;14.71;81.15
71491;BME280;59307;50.060;9.150;2022-09-09T02:11:17;98335.69;;;14.68;80.98
71491;BME280;59307;50.060;9.150;2022-09-09T02:13:45;98332.03;;;14.69;81.51
71491;BME280;59307;50.060;9.150;2022-09-09T02:18:51;98329.53;;;14.40;84.25
71491;BME280;59307;50.060;9.150;2022-09-09T02:21:18;98343.34;;;14.45;84.39
71491;BME280;59307;50.060;9.150;2022-09-09T02:23:46;98341.22;;;14.47;83.68
71491;BME280;59307;50.060;9.150;2022-09-09T02:26:14;98337.84;;;14.66;82.09
71491;BME280;59307;50.060;9.150;2022-09-09T02:28:46;98340.28;;;14.76;81.98
71491;BME280;59307;50.060;9.150;2022-09-09T02:31:14;98334.16;;;14.67;82.75
71491;BME280;59307;50.060;9.150;2022-09-09T02:33:45;98328.63;;;14.68;82.08
71491;BME280;59307;50.060;9.150;2022-09-09T02:36:14;98333.66;;;14.65;83.63
71491;BME280;59307;50.060;9.150;2022-09-09T02:38:45;98336.56;;;14.63;83.83
71491;BME280;59307;50.060;9.150;2022-09-09T02:41:16;98340.50;;;14.61;82.67
71491;BME280;59307;50.060;9.150;2022-09-09T02:43:42;98351.19;;;14.64;83.07
71491;BME280;59307;50.060;9.150;2022-09-09T02:48:58;98329.81;;;14.76;82.35
71491;BME280;59307;50.060;9.150;2022-09-09T02:56:50;98332.94;;;14.78;82.69
71491;BME280;59307;50.060;9.150;2022-09-09T02:59:16;98327.69;;;14.78;82.40
71491;BME280;59307;50.060;9.150;2022-09-09T03:01:42;98329.69;;;14.86;81.76
71491;BME280;59307;50.060;9.150;2022-09-09T03:04:09;98336.16;;;14.88;81.42
71491;BME280;59307;50.060;9.150;2022-09-09T03:06:34;98337.84;;;14.98;80.91
71491;BME280;59307;50.060;9.150;2022-09-09T03:09:00;98345.50;;;14.94;80.80
71491;BME280;59307;50.060;9.150;2022-09-09T03:11:27;98344.22;;;15.10;80.98
71491;BME280;59307;50.060;9.150;2022-09-09T03:13:53;98345.25;;;15.09;80.94
71491;BME280;59307;50.060;9.150;2022-09-09T03:16:21;98343.94;;;15.12;80.43
71491;BME280;59307;50.060;9.150;2022-09-09T03:18:47;98339.44;;;15.12;80.39
71491;BME280;59307;50.060;9.150;2022-09-09T03:21:12;98334.06;;;15.22;79.40
71491;BME280;59307;50.060;9.150;2022-09-09T03:23:37;98335.41;;;15.20;79.82
71491;BME280;59307;50.060;9.150;2022-09-09T03:26:03;98339.38;;;15.17;80.28
71491;BME280;59307;50.060;9.150;2022-09-09T03:28:28;98339.69;;;15.16;81.43
71491;BME280;59307;50.060;9.150;2022-09-09T03:31:00;98343.97;;;15.39;79.27
71491;BME280;59307;50.060;9.150;2022-09-09T03:33:26;98335.22;;;15.30;79.42
71491;BME280;59307;50.060;9.150;2022-09-09T03:35:51;98330.59;;;15.27;79.02
71491;BME280;59307;50.060;9.150;2022-09-09T03:38:17;98331.44;;;15.22;79.62
71491;BME280;59307;50.060;9.150;2022-09-09T03:40:49;98329.91;;;15.21;79.66
71491;BME280;59307;50.060;9.150;2022-09-09T03:43:15;98331.72;;;15.21;79.71
71491;BME280;59307;50.060;9.150;2022-09-09T03:45:45;98335.41;;;15.20;80.06
71491;BME280;59307;50.060;9.150;2022-09-09T03:48:12;98327.44;;;15.11;80.36
71491;BME280;59307;50.060;9.150;2022-09-09T03:50:37;98326.94;;;15.09;80.04
71491;BME280;59307;50.060;9.150;2022-09-09T03:53:02;98340.03;;;15.09;79.69
71491;BME280;59307;50.060;9.150;2022-09-09T03:55:27;98329.06;;;15.07;79.88
71491;BME280;59307;50.060;9.150;2022-09-09T03:57:53;98330.16;;;15.06;80.92
71491;BME280;59307;50.060;9.150;2022-09-09T04:00:18;98344.56;;;15.04;80.69
71491;BME280;59307;50.060;9.150;2022-09-09T04:02:43;98339.91;;;15.01;80.92
71491;BME280;59307;50.060;9.150;2022-09-09T04:05:09;98339.97;;;14.96;81.05
71491;BME280;59307;50.060;9.150;2022-09-09T04:07:34;98336.81;;;14.99;80.60
71491;BME280;59307;50.060;9.150;2022-09-09T04:10:00;98331.06;;;14.97;81.59
71491;BME280;59307;50.060;9.150;2022-09-09T04:12:25;98328.06;;;14.90;81.17
71491;BME280;59307;50.060;9.150;2022-09-09T04:14:51;98331.09;;;14.78;82.33
71491;BME280;59307;50.060;9.150;2022-09-09T04:17:16;98331.09;;;14.78;83.21
71491;BME280;59307;50.060;9.150;2022-09-09T04:19:42;98329.31;;;14.74;82.19
71491;BME280;59307;50.060;9.150;2022-09-09T04:22:07;98329.75;;;14.62;84.12
71491;BME280;59307;50.060;9.150;2022-09-09T04:24:32;98329.41;;;14.50;84.91
71491;BME280;59307;50.060;9.150;2022-09-09T04:26:58;98323.56;;;14.39;85.40
71491;BME280;59307;50.060;9.150;2022-09-09T04:29:24;98323.34;;;14.12;86.38
71491;BME280;59307;50.060;9.150;2022-09-09T04:31:49;98323.91;;;14.09;87.16
71491;BME280;59307;50.060;9.150;2022-09-09T04:34:14;98330.16;;;13.90;88.07
71491;BME280;59307;50.060;9.150;2022-09-09T04:36:39;98337.06;;;13.81;88.49
71491;BME280;59307;50.060;9.150;2022-09-09T04:39:05;98334.38;;;14.09;87.23
71491;BME280;59307;50.060;9.150;2022-09-09T04:41:31;98329.44;;;14.08;86.09
71491;BME280;59307;50.060;9.150;2022-09-09T04:43:56;98337.31;;;14.03;87.08
71491;BME280;59307;50.060;9.150;2022-09-09T04:46:22;98340.94;;;14.07;87.58
71491;BME280;59307;50.060;9.150;2022-09-09T04:48:49;98341.00;;;14.02;87.70
71491;BME280;59307;50.060;9.150;2022-09-09T04:51:14;98335.56;;;13.98;88.04
71491;BME280;59307;50.060;9.150;2022-09-09T04:53:40;98332.16;;;13.98;87.46
71491;BME280;59307;50.060;9.150;2022-09-09T04:56:11;98326.94;;;13.98;86.55
71491;BME280;59307;50.060;9.150;2022-09-09T04:58:37;98329.44;;;13.84;88.15
71491;BME280;59307;50.060;9.150;2022-09-09T05:01:14;98331.81;;;13.81;88.37
71491;BME280;59307;50.060;9.150;2022-09-09T05:03:41;98332.69;;;13.76;89.09
71491;BME280;59307;50.060;9.150;2022-09-09T05:06:14;98336.84;;;13.77;89.49
71491;BME280;59307;50.060;9.150;2022-09-09T05:08:42;98346.28;;;13.73;89.85
71491;BME280;59307;50.060;9.150;2022-09-09T05:11:21;98337.72;;;13.68;90.37
71491;BME280;59307;50.060;9.150;2022-09-09T05:13:51;98347.28;;;13.77;88.46
71491;BME280;59307;50.060;9.150;2022-09-09T05:16:17;98344.56;;;13.87;88.72
71491;BME280;59307;50.060;9.150;2022-09-09T05:18:43;98346.84;;;13.94;87.89
71491;BME280;59307;50.060;9.150;2022-09-09T05:21:12;98347.13;;;13.92;88.47
71491;BME280;59307;50.060;9.150;2022-09-09T05:23:38;98351.06;;;13.90;88.94
71491;BME280;59307;50.060;9.150;2022-09-09T05:26:04;98355.31;;;14.04;87.33
71491;BME280;59307;50.060;9.150;2022-09-09T05:28:30;98365.16;;;14.12;88.61
71491;BME280;59307;50.060;9.150;2022-09-09T05:31:00;98362.22;;;14.19;87.25
71491;BME280;59307;50.060;9.150;2022-09-09T05:33:28;98359.53;;;14.24;86.39
71491;BME280;59307;50.060;9.150;2022-09-09T05:36:08;98360.13;;;14.21;87.74
71491;BME280;59307;50.060;9.150;2022-09-09T05:38:34;98369.13;;;14.33;86.78
71491;BME280;59307;50.060;9.150;2022-09-09T05:41:01;98369.28;;;14.61;85.94
71491;BME280;59307;50.060;9.150;2022-09-09T05:43:27;98363.63;;;14.72;85.94
71491;BME280;59307;50.060;9.150;2022-09-09T05:46:02;98378.13;;;14.65;84.70
71491;BME280;59307;50.060;9.150;2022-09-09T05:48:33;98379.75;;;14.61;84.57
71491;BME280;59307;50.060;9.150;2022-09-09T05:50:59;98385.47;;;14.63;84.16
71491;BME280;59307;50.060;9.150;2022-09-09T05:53:26;98378.72;;;14.62;84.04
71491;BME280;59307;50.060;9.150;2022-09-09T05:56:12;98376.00;;;14.67;83.84
71491;BME280;59307;50.060;9.150;2022-09-09T05:58:39;98384.00;;;14.75;83.85
71491;BME280;59307;50.060;9.150;2022-09-09T06:01:07;98382.88;;;14.81;83.61
71491;BME280;59307;50.060;9.150;2022-09-09T06:03:38;98392.00;;;14.84;83.19
71491;BME280;59307;50.060;9.150;2022-09-09T06:06:06;98389.22;;;14.94;83.10
71491;BME280;59307;50.060;9.150;2022-09-09T06:08:35;98393.41;;;14.95;83.50
71491;BME280;59307;50.060;9.150;2022-09-09T06:11:14;98397.50;;;15.01;82.77
71491;BME280;59307;50.060;9.150;2022-09-09T06:13:40;98389.69;;;15.14;82.35
71491;BME280;59307;50.060;9.150;2022-09-09T06:16:09;98398.78;;;15.35;81.35
71491;BME280;59307;50.060;9.150;2022-09-09T06:18:36;98398.09;;;15.30;81.59
71491;BME280;59307;50.060;9.150;2022-09-09T06:21:04;98400.91;;;15.33;81.55
71491;BME280;59307;50.060;9.150;2022-09-09T06:23:30;98406.13;;;15.52;81.38
71491;BME280;59307;50.060;9.150;2022-09-09T06:26:06;98410.97;;;15.77;80.72
71491;BME280;59307;50.060;9.150;2022-09-09T06:28:35;98411.34;;;15.84;81.91
71491;BME280;59307;50.060;9.150;2022-09-09T06:31:06;98406.47;;;15.64;81.81
71491;BME280;59307;50.060;9.150;2022-09-09T06:33:37;98409.38;;;15.63;81.66
71491;BME280;59307;50.060;9.150;2022-09-09T06:36:05;98410.59;;;15.51;82.41
71491;BME280;59307;50.060;9.150;2022-09-09T06:38:31;98401.88;;;15.56;81.92
71491;BME280;59307;50.060;9.150;2022-09-09T06:40:58;98405.16;;;15.48;82.32
71491;BME280;59307;50.060;9.150;2022-09-09T06:43:25;98407.56;;;15.44;82.24
71491;BME280;59307;50.060;9.150;2022-09-09T06:45:55;98402.97;;;15.55;81.76
71491;BME280;59307;50.060;9.150;2022-09-09T06:48:21;98407.28;;;15.46;82.27
71491;BME280;59307;50.060;9.150;2022-09-09T06:50:46;98414.00;;;15.52;82.56
71491;BME280;59307;50.060;9.150;2022-09-09T06:53:12;98412.00;;;15.63;82.71
71491;BME280;59307;50.060;9.150;2022-09-09T06:55:37;98414.06;;;15.79;81.51
71491;BME280;59307;50.060;9.150;2022-09-09T06:58:08;98411.44;;;15.93;80.46
71491;BME280;59307;50.060;9.150;2022-09-09T07:00:33;98411.56;;;16.01;80.10
71491;BME280;59307;50.060;9.150;2022-09-09T07:02:58;98408.66;;;16.16;80.27
71491;BME280;59307;50.060;9.150;2022-09-09T07:05:24;98409.41;;;16.30;79.67
71491;BME280;59307;50.060;9.150;2022-09-09T07:07:51;98410.47;;;16.57;78.51
71491;BME280;59307;50.060;9.150;2022-09-09T07:10:17;98408.63;;;16.71;78.35
71491;BME280;59307;50.060;9.150;2022-09-09T07:12:42;98418.16;;;17.02;76.79
71491;BME280;59307;50.060;9.150;2022-09-09T07:15:08;98414.88;;;16.97;76.72
71491;BME280;59307;50.060;9.150;2022-09-09T07:17:33;98426.03;;;17.02;76.10
71491;BME280;59307;50.060;9.150;2022-09-09T07:19:59;98419.31;;;17.10;75.96
71491;BME280;59307;50.060;9.150;2022-09-09T07:22:24;98413.59;;;17.38;74.61
71491;BME280;59307;50.060;9.150;2022-09-09T07:24:50;98412.19;;;17.85;73.52
71491;BME280;59307;50.060;9.150;2022-09-09T07:27:15;98416.88;;;17.88;73.27
71491;BME280;59307;50.060;9.150;2022-09-09T07:29:40;98410.22;;;17.91;73.49
71491;BME280;59307;50.060;9.150;2022-09-09T07:32:06;98411.25;;;17.51;74.29
71491;BME280;59307;50.060;9.150;2022-09-09T07:34:31;98424.06;;;17.30;75.33
71491;BME280;59307;50.060;9.150;2022-09-09T07:36:56;98422.50;;;17.29;75.09
71491;BME280;59307;50.060;9.150;2022-09-09T07:39:22;98423.81;;;17.18;75.76
71491;BME280;59307;50.060;9.150;2022-09-09T07:41:49;98425.09;;;17.20;75.54
71491;BME280;59307;50.060;9.150;2022-09-09T07:44:17;98429.75;;;17.68;75.18
71491;BME280;59307;50.060;9.150;2022-09-09T07:46:43;98431.16;;;17.74;74.46
71491;BME280;59307;50.060;9.150;2022-09-09T07:49:11;98425.09;;;17.65;74.00
71491;BME280;59307;50.060;9.150;2022-09-09T07:51:40;98428.56;;;17.52;74.03
71491;BME280;59307;50.060;9.150;2022-09-09T07:54:09;98425.56;;;17.44;74.45
71491;BME280;59307;50.060;9.150;2022-09-09T07:56:35;98424.09;;;17.52;73.86
71491;BME280;59307;50.060;9.150;2022-09-09T07:59:00;98425.06;;;17.56;71.64
71491;BME280;59307;50.060;9.150;2022-09-09T08:01:29;98428.59;;;17.38;73.17
71491;BME280;59307;50.060;9.150;2022-09-09T08:04:00;98434.22;;;17.45;72.72
71491;BME280;59307;50.060;9.150;2022-09-09T08:06:27;98431.84;;;17.57;72.91
71491;BME280;59307;50.060;9.150;2022-09-09T08:08:53;98432.59;;;17.49;73.28
71491;BME280;59307;50.060;9.150;2022-09-09T08:11:21;98441.94;;;17.41;72.78
71491;BME280;59307;50.060;9.150;2022-09-09T08:13:48;98445.09;;;17.30;72.93
71491;BME280;59307;50.060;9.150;2022-09-09T08:16:17;98441.03;;;17.46;73.11
71491;BME280;59307;50.060;9.150;2022-09-09T08:18:42;98437.22;;;17.52;73.57
71491;BME280;59307;50.060;9.150;2022-09-09T08:21:12;98446.97;;;17.16;74.42
71491;BME280;59307;50.060;9.150;2022-09-09T08:23:41;98444.59;;;17.06;74.95
71491;BME280;59307;50.060;9.150;2022-09-09T08:26:12;98452.47;;;17.06;76.20
71491;BME280;59307;50.060;9.150;2022-09-09T08:28:39;98453.25;;;17.06;77.41
71491;BME280;59307;50.060;9.150;2022-09-09T08:31:16;98464.66;;;17.02;76.98
71491;BME280;59307;50.060;9.150;2022-09-09T08:33:42;98463.72;;;17.20;79.14
71491;BME280;59307;50.060;9.150;2022-09-09T08:36:10;98458.44;;;16.84;77.91
71491;BME280;59307;50.060;9.150;2022-09-09T08:38:36;98462.22;;;17.05;78.60
71491;BME280;59307;50.060;9.150;2022-09-09T08:41:15;98469.75;;;17.20;78.14
71491;BME280;59307;50.060;9.150;2022-09-09T08:43:45;98471.47;;;17.25;76.96
71491;BME280;59307;50.060;9.150;2022-09-09T08:46:18;98469.94;;;17.24;77.02
71491;BME280;59307;50.060;9.150;2022-09-09T08:48:56;98467.75;;;17.39;78.59
71491;BME280;59307;50.060;9.150;2022-09-09T08:51:26;98463.34;;;17.49;75.98
71491;BME280;59307;50.060;9.150;2022-09-09T08:53:54;98466.75;;;17.71;76.63
71491;BME280;59307;50.060;9.150;2022-09-09T08:56:24;98470.66;;;18.13;74.97
71491;BME280;59307;50.060;9.150;2022-09-09T08:58:54;98471.38;;;18.35;73.84
71491;BME280;59307;50.060;9.150;2022-09-09T09:01:47;98469.66;;;18.00;72.92
71491;BME280;59307;50.060;9.150;2022-09-09T09:04:38;98472.25;;;18.22;74.03
71491;BME280;59307;50.060;9.150;2022-09-09T09:07:24;98465.53;;;18.08;74.29
71491;BME280;59307;50.060;9.150;2022-09-09T09:12:51;98472.81;;;18.42;72.79
71491;BME280;59307;50.060;9.150;2022-09-09T09:15:24;98465.63;;;18.90;69.48
71491;BME280;59307;50.060;9.150;2022-09-09T09:17:50;98468.75;;;18.92;69.49
71491;BME280;59307;50.060;9.150;2022-09-09T09:20:19;98460.84;;;19.17;69.36
71491;BME280;59307;50.060;9.150;2022-09-09T09:22:51;98455.38;;;18.71;67.78
71491;BME280;59307;50.060;9.150;2022-09-09T09:25:23;98455.56;;;18.83;68.07
71491;BME280;59307;50.060;9.150;2022-09-09T09:30:22;98455.25;;;18.28;69.33
71491;BME280;59307;50.060;9.150;2022-09-09T09:35:35;98464.88;;;18.33;70.80
71491;BME280;59307;50.060;9.150;2022-09-09T09:38:01;98461.56;;;18.27;69.85
71491;BME280;59307;50.060;9.150;2022-09-09T09:40:28;98456.66;;;18.34;69.13
71491;BME280;59307;50.060;9.150;2022-09-09T09:42:58;98451.75;;;18.42;69.19
71491;BME280;59307;50.060;9.150;2022-09-09T09:45:43;98454.19;;;18.94;68.61
71491;BME280;59307;50.060;9.150;2022-09-09T09:48:13;98458.19;;;19.69;64.54
71491;BME280;59307;50.060;9.150;2022-09-09T09:50:53;98447.06;;;19.46;64.98
71491;BME280;59307;50.060;9.150;2022-09-09T09:53:29;98448.63;;;19.39;65.23
71491;BME280;59307;50.060;9.150;2022-09-09T09:55:57;98448.44;;;19.01;69.66
71491;BME280;59307;50.060;9.150;2022-09-09T09:58:25;98452.75;;;18.63;74.76
71491;BME280;59307;50.060;9.150;2022-09-09T10:00:53;98440.47;;;18.10;77.32
71491;BME280;59307;50.060;9.150;2022-09-09T10:03:22;98433.38;;;17.80;79.87
71491;BME280;59307;50.060;9.150;2022-09-09T10:05:48;98435.47;;;17.70;77.17
71491;BME280;59307;50.060;9.150;2022-09-09T10:08:15;98433.16;;;17.68;81.08
71491;BME280;59307;50.060;9.150;2022-09-09T10:13:29;98438.66;;;17.58;77.38
71491;BME280;59307;50.060;9.150;2022-09-09T10:21:37;98432.13;;;17.78;79.95
71491;BME280;59307;50.060;9.150;2022-09-09T10:30:18;98435.91;;;18.33;78.16
71491;BME280;59307;50.060;9.150;2022-09-09T10:32:56;98432.63;;;18.27;75.92
71491;BME280;59307;50.060;9.150;2022-09-09T10:35:43;98431.56;;;18.28;78.33
71491;BME280;59307;50.060;9.150;2022-09-09T10:38:14;98429.41;;;18.30;74.85
71491;BME280;59307;50.060;9.150;2022-09-09T10:46:20;98429.19;;;18.10;78.04
71491;BME280;59307;50.060;9.150;2022-09-09T10:56:57;98419.78;;;18.99;72.33
71491;BME280;59307;50.060;9.150;2022-09-09T10:59:28;98422.25;;;19.04;67.37
71491;BME280;59307;50.060;9.150;2022-09-09T11:02:00;98425.97;;;18.95;67.27
71491;BME280;59307;50.060;9.150;2022-09-09T11:04:33;98419.91;;;19.20;63.89
71491;BME280;59307;50.060;9.150;2022-09-09T11:07:02;98412.94;;;19.50;63.30
71491;BME280;59307;50.060;9.150;2022-09-09T11:09:36;98420.53;;;19.60;61.77
71491;BME280;59307;50.060;9.150;2022-09-09T11:12:05;98410.75;;;19.17;63.86
71491;BME280;59307;50.060;9.150;2022-09-09T11:14:51;98411.84;;;19.08;64.00
71491;BME280;59307;50.060;9.150;2022-09-09T11:17:22;98403.97;;;18.91;62.49
71491;BME280;59307;50.060;9.150;2022-09-09T11:19:49;98403.97;;;18.99;62.50
71491;BME280;59307;50.060;9.150;2022-09-09T11:22:39;98409.69;;;19.90;59.94
71491;BME280;59307;50.060;9.150;2022-09-09T11:25:38;98411.47;;;19.78;58.22
71491;BME280;59307;50.060;9.150;2022-09-09T11:39:32;98425.81;;;19.17;61.60
71491;BME280;59307;50.060;9.150;2022-09-09T11:44:33;98423.16;;;18.91;64.17
71491;BME280;59307;50.060;9.150;2022-09-09T11:46:59;98421.50;;;19.04;63.24
71491;BME280;59307;50.060;9.150;2022-09-09T11:49:30;98433.41;;;19.18;63.35
71491;BME280;59307;50.060;9.150;2022-09-09T11:52:21;98436.06;;;19.01;64.07
71491;BME280;59307;50.060;9.150;2022-09-09T11:54:48;98440.19;;;18.60;61.18
71491;BME280;59307;50.060;9.150;2022-09-09T11:57:40;98435.06;;;18.07;59.59
71491;BME280;59307;50.060;9.150;2022-09-09T12:00:06;98424.28;;;17.86;63.21
71491;BME280;59307;50.060;9.150;2022-09-09T12:02:32;98422.09;;;17.35;63.33
71491;BME280;59307;50.060;9.150;2022-09-09T12:05:12;98407.16;;;17.00;68.80
71491;BME280;59307;50.060;9.150;2022-09-09T12:07:56;98413.09;;;17.06;70.77
71491;BME280;59307;50.060;9.150;2022-09-09T12:10:29;98419.81;;;16.98;75.92
71491;BME280;59307;50.060;9.150;2022-09-09T12:13:17;98421.69;;;16.84;73.83
71491;BME280;59307;50.060;9.150;2022-09-09T12:15:55;98440.84;;;16.98;73.55
71491;BME280;59307;50.060;9.150;2022-09-09T12:18:31;98433.59;;;16.41;73.82
71491;BME280;59307;50.060;9.150;2022-09-09T12:23:47;98415.34;;;16.22;83.99
71491;BME280;59307;50.060;9.150;2022-09-09T12:26:47;98423.84;;;16.82;81.40
71491;BME280;59307;50.060;9.150;2022-09-09T12:29:23;98415.66;;;17.41;81.51
71491;BME280;59307;50.060;9.150;2022-09-09T12:32:10;98412.59;;;17.26;79.71
71491;BME280;59307;50.060;9.150;2022-09-09T12:34:53;98416.31;;;17.69;77.49
71491;BME280;59307;50.060;9.150;2022-09-09T12:40:05;98417.41;;;18.72;78.57
71491;BME280;59307;50.060;9.150;2022-09-09T12:42:31;98419.75;;;18.57;75.78
71491;BME280;59307;50.060;9.150;2022-09-09T12:45:03;98408.94;;;18.92;78.69
71491;BME280;59307;50.060;9.150;2022-09-09T12:47:56;98408.00;;;19.05;74.72
71491;BME280;59307;50.060;9.150;2022-09-09T12:50:35;98405.34;;;18.80;78.95
71491;BME280;59307;50.060;9.150;2022-09-09T12:53:11;98410.00;;;19.17;73.98
71491;BME280;59307;50.060;9.150;2022-09-09T12:55:50;98400.91;;;19.69;71.92
71491;BME280;59307;50.060;9.150;2022-09-09T12:58:17;98400.53;;;19.50;71.00
71491;BME280;59307;50.060;9.150;2022-09-09T13:00:51;98404.59;;;19.39;73.12
71491;BME280;59307;50.060;9.150;2022-09-09T13:03:19;98399.13;;;19.44;73.21
71491;BME280;59307;50.060;9.150;2022-09-09T13:05:45;98404.75;;;19.17;72.93
71491;BME280;59307;50.060;9.150;2022-09-09T13:08:15;98395.66;;;19.69;72.87
71491;BME280;59307;50.060;9.150;2022-09-09T13:10:50;98400.66;;;20.00;70.04
71491;BME280;59307;50.060;9.150;2022-09-09T13:13:25;98398.41;;;19.81;70.09
71491;BME280;59307;50.060;9.150;2022-09-09T13:15:53;98394.28;;;19.63;69.03
71491;BME280;59307;50.060;9.150;2022-09-09T13:18:22;98393.25;;;19.04;70.33
71491;BME280;59307;50.060;9.150;2022-09-09T13:20:49;98389.72;;;18.83;72.46
71491;BME280;59307;50.060;9.150;2022-09-09T13:23:16;98383.34;;;18.93;71.44
71491;BME280;59307;50.060;9.150;2022-09-09T13:25:54;98384.88;;;18.85;71.02
71491;BME280;59307;50.060;9.150;2022-09-09T13:28:22;98384.13;;;18.85;71.60
71491;BME280;59307;50.060;9.150;2022-09-09T13:31:02;98386.44;;;18.95;69.98
71491;BME280;59307;50.060;9.150;2022-09-09T13:33:36;98391.88;;;18.81;69.84
71491;BME280;59307;50.060;9.150;2022-09-09T13:36:07;98378.41;;;18.83;73.01
71491;BME280;59307;50.060;9.150;2022-09-09T13:38:58;98380.88;;;18.88;70.64
71491;BME280;59307;50.060;9.150;2022-09-09T13:41:36;98391.72;;;18.86;68.73
71491;BME280;59307;50.060;9.150;2022-09-09T13:44:19;98388.44;;;18.72;67.93
71491;BME280;59307;50.060;9.150;2022-09-09T13:46:44;98390.47;;;18.67;68.54
71491;BME280;59307;50.060;9.150;2022-09-09T13:51:49;98395.13;;;18.78;69.60
71491;BME280;59307;50.060;9.150;2022-09-09T13:54:17;98398.97;;;18.72;68.69
71491;BME280;59307;50.060;9.150;2022-09-09T13:56:44;98400.41;;;18.70;70.01
71491;BME280;59307;50.060;9.150;2022-09-09T13:59:12;98402.56;;;18.68;70.61
71491;BME280;59307;50.060;9.150;2022-09-09T14:01:38;98393.25;;;18.62;70.92
71491;BME280;59307;50.060;9.150;2022-09-09T14:04:04;98401.47;;;18.52;71.70
71491;BME280;59307;50.060;9.150;2022-09-09T14:06:31;98396.13;;;18.34;70.00
71491;BME280;59307;50.060;9.150;2022-09-09T14:08:57;98402.53;;;18.42;71.90
71491;BME280;59307;50.060;9.150;2022-09-09T14:11:22;98406.53;;;18.48;69.88
71491;BME280;59307;50.060;9.150;2022-09-09T14:13:48;98411.88;;;18.26;69.97
71491;BME280;59307;50.060;9.150;2022-09-09T14:16:15;98415.16;;;18.31;69.75
71491;BME280;59307;50.060;9.150;2022-09-09T14:18:41;98417.19;;;18.34;70.84
71491;BME280;59307;50.060;9.150;2022-09-09T14:21:07;98404.78;;;18.26;71.67
71491;BME280;59307;50.060;9.150;2022-09-09T14:23:33;98415.75;;;18.20;72.07
71491;BME280;59307;50.060;9.150;2022-09-09T14:25:58;98421.03;;;18.28;71.85
71491;BME280;59307;50.060;9.150;2022-09-09T14:28:24;98426.03;;;18.38;71.35
71491;BME280;59307;50.060;9.150;2022-09-09T14:30:50;98426.56;;;18.66;71.93
71491;BME280;59307;50.060;9.150;2022-09-09T14:33:16;98430.19;;;19.93;68.16
71491;BME280;59307;50.060;9.150;2022-09-09T14:35:41;98432.69;;;21.27;60.58
71491;BME280;59307;50.060;9.150;2022-09-09T14:38:08;98424.66;;;21.68;59.88
71491;BME280;59307;50.060;9.150;2022-09-09T14:40:35;98417.88;;;20.85;62.49
71491;BME280;59307;50.060;9.150;2022-09-09T14:43:01;98423.16;;;20.06;63.93
71491;BME280;59307;50.060;9.150;2022-09-09T14:45:27;98422.38;;;19.59;64.98
71491;BME280;59307;50.060;9.150;2022-09-09T14:47:52;98412.31;;;19.44;66.55
71491;BME280;59307;50.060;9.150;2022-09-09T14:50:19;98417.09;;;19.59;63.75
71491;BME280;59307;50.060;9.150;2022-09-09T14:52:45;98411.66;;;20.69;62.11
71491;BME280;59307;50.060;9.150;2022-09-09T14:55:11;98404.50;;;21.76;56.95
71491;BME280;59307;50.060;9.150;2022-09-09T14:57:36;98398.91;;;22.26;55.25
71491;BME280;59307;50.060;9.150;2022-09-09T15:00:03;98392.94;;;22.29;53.81
71491;BME280;59307;50.060;9.150;2022-09-09T15:02:29;98395.03;;;21.99;55.89